sensor_id;sensor_type;location;lat;lon;timestamp;P1;durP1;ratioP1;P2;durP2;ratioP2
19193;SDS011;9729;52.296;13.260;2023-10-19T00:01:25;29.53;;;17.93;;
19193;SDS011;9729;52.296;13.260;2023-10-19T00:03:53;32.47;;;18.87;;
19193;SDS011;9729;52.296;13.260;2023-10-19T00:06:21;29.40;;;18.53;;
19193;SDS011;9729;52.296;13.260;2023-10-19T00:08:48;32.30;;;18.93;;
19193;SDS011;9729;52.296;13.260;2023-10-19T00:11:15;32.83;;;19.37;;
19193;SDS011;9729;52.296;13.260;2023-10-19T00:13:48;34.67;;;19.37;;
19193;SDS011;9729;52.296;13.260;2023-10-19T00:16:15;29.60;;;18.93;;
19193;SDS011;9729;52.296;13.260;2023-10-19T00:18:44;30.50;;;18.67;;
19193;SDS011;9729;52.296;13.260;2023-10-19T00:21:13;35.03;;;20.37;;
19193;SDS011;9729;52.296;13.260;2023-10-19T00:23:46;29.27;;;18.57;;
19193;SDS011;9729;52.296;13.260;2023-10-19T00:26:12;31.43;;;18.20;;
19193;SDS011;9729;52.296;13.260;2023-10-19T00:28:42;26.27;;;17.93;;
19193;SDS011;9729;52.296;13.260;2023-10-19T00:31:12;31.47;;;18.57;;
19193;SDS011;9729;52.296;13.260;2023-10-19T00:33:38;30.40;;;18.70;;
19193;SDS011;9729;52.296;13.260;2023-10-19T00:36:06;30.03;;;18.47;;
19193;SDS011;9729;52.296;13.260;2023-10-19T00:38:33;31.43;;;18.63;;
19193;SDS011;9729;52.296;13.260;2023-10-19T00:41:07;36.10;;;19.90;;
19193;SDS011;9729;52.296;13.260;2023-10-19T00:43:38;29.53;;;20.13;;
19193;SDS011;9729;52.296;13.260;2023-10-19T00:46:09;32.97;;;19.73;;
19193;SDS011;9729;52.296;13.260;2023-10-19T00:48:41;35.20;;;20.13;;
19193;SDS011;9729;52.296;13.260;2023-10-19T00:51:10;36.30;;;18.77;;
19193;SDS011;9729;52.296;13.260;2023-10-19T00:53:52;30.63;;;18.73;;
19193;SDS011;9729;52.296;13.260;2023-10-19T00:56:20;32.80;;;19.37;;
19193;SDS011;9729;52.296;13.260;2023-10-19T00:58:48;33.77;;;19.37;;
19193;SDS011;9729;52.296;13.260;2023-10-19T01:01:18;36.93;;;19.17;;
19193;SDS011;9729;52.296;13.260;2023-10-19T01:03:50;34.67;;;20.03;;
19193;SDS011;9729;52.296;13.260;2023-10-19T01:06:21;32.23;;;20.83;;
19193;SDS011;9729;52.296;13.260;2023-10-19T01:08:47;32.43;;;19.90;;
19193;SDS011;9729;52.296;13.260;2023-10-19T01:11:16;34.63;;;19.33;;
19193;SDS011;9729;52.296;13.260;2023-10-19T01:13:45;33.73;;;19.30;;
19193;SDS011;9729;52.296;13.260;2023-10-19T01:16:13;34.20;;;19.47;;
19193;SDS011;9729;52.296;13.260;2023-10-19T01:18:47;28.97;;;19.23;;
19193;SDS011;9729;52.296;13.260;2023-10-19T01:21:17;32.10;;;19.87;;
19193;SDS011;9729;52.296;13.260;2023-10-19T01:23:47;38.23;;;19.93;;
19193;SDS011;9729;52.296;13.260;2023-10-19T01:26:14;31.10;;;18.23;;
19193;SDS011;9729;52.296;13.260;2023-10-19T01:28:46;29.73;;;18.43;;
19193;SDS011;9729;52.296;13.260;2023-10-19T01:31:14;31.43;;;20.27;;
19193;SDS011;9729;52.296;13.260;2023-10-19T01:33:42;37.27;;;21.27;;
19193;SDS011;9729;52.296;13.260;2023-10-19T01:36:10;31.93;;;19.50;;
19193;SDS011;9729;52.296;13.260;2023-10-19T01:38:36;30.67;;;19.90;;
19193;SDS011;9729;52.296;13.260;2023-10-19T01:41:04;33.03;;;19.67;;
19193;SDS011;9729;52.296;13.260;2023-10-19T01:43:32;31.60;;;19.87;;
19193;SDS011;9729;52.296;13.260;2023-10-19T01:45:59;31.37;;;20.27;;
19193;SDS011;9729;52.296;13.260;2023-10-19T01:48:29;28.37;;;19.77;;
19193;SDS011;9729;52.296;13.260;2023-10-19T01:50:58;30.47;;;19.37;;
19193;SDS011;9729;52.296;13.260;2023-10-19T01:53:24;36.37;;;19.57;;
19193;SDS011;9729;52.296;13.260;2023-10-19T01:55:51;42.30;;;21.97;;
19193;SDS011;9729;52.296;13.260;2023-10-19T01:58:24;34.90;;;20.73;;
19193;SDS011;9729;52.296;13.260;2023-10-19T02:00:51;35.40;;;21.03;;
19193;SDS011;9729;52.296;13.260;2023-10-19T02:03:20;38.77;;;19.90;;
19193;SDS011;9729;52.296;13.260;2023-10-19T02:05:48;36.30;;;20.23;;
19193;SDS011;9729;52.296;13.260;2023-10-19T02:08:15;33.47;;;19.20;;
19193;SDS011;9729;52.296;13.260;2023-10-19T02:10:45;33.90;;;18.43;;
19193;SDS011;9729;52.296;13.260;2023-10-19T02:13:11;32.80;;;19.33;;
19193;SDS011;9729;52.296;13.260;2023-10-19T02:15:42;34.33;;;19.23;;
19193;SDS011;9729;52.296;13.260;2023-10-19T02:18:07;36.10;;;19.83;;
19193;SDS011;9729;52.296;13.260;2023-10-19T02:20:34;31.83;;;20.07;;
19193;SDS011;9729;52.296;13.260;2023-10-19T02:22:59;35.17;;;20.73;;
19193;SDS011;9729;52.296;13.260;2023-10-19T02:25:28;31.93;;;19.70;;
19193;SDS011;9729;52.296;13.260;2023-10-19T02:27:55;38.90;;;21.27;;
19193;SDS011;9729;52.296;13.260;2023-10-19T02:30:22;32.10;;;20.60;;
19193;SDS011;9729;52.296;13.260;2023-10-19T02:32:51;29.07;;;18.13;;
19193;SDS011;9729;52.296;13.260;2023-10-19T02:35:18;36.17;;;20.17;;
19193;SDS011;9729;52.296;13.260;2023-10-19T02:37:44;33.77;;;20.63;;
19193;SDS011;9729;52.296;13.260;2023-10-19T02:40:10;34.47;;;20.93;;
19193;SDS011;9729;52.296;13.260;2023-10-19T02:42:44;34.60;;;20.43;;
19193;SDS011;9729;52.296;13.260;2023-10-19T02:45:12;37.47;;;21.10;;
19193;SDS011;9729;52.296;13.260;2023-10-19T02:47:40;42.00;;;21.80;;
19193;SDS011;9729;52.296;13.260;2023-10-19T02:50:09;36.47;;;20.53;;
19193;SDS011;9729;52.296;13.260;2023-10-19T02:52:38;37.10;;;21.37;;
19193;SDS011;9729;52.296;13.260;2023-10-19T02:55:07;38.10;;;21.47;;
19193;SDS011;9729;52.296;13.260;2023-10-19T02:57:34;39.43;;;22.23;;
19193;SDS011;9729;52.296;13.260;2023-10-19T03:00:00;31.83;;;21.37;;
19193;SDS011;9729;52.296;13.260;2023-10-19T03:02:33;35.30;;;21.40;;
19193;SDS011;9729;52.296;13.260;2023-10-19T03:04:58;34.30;;;19.87;;
19193;SDS011;9729;52.296;13.260;2023-10-19T03:07:27;37.43;;;21.97;;
19193;SDS011;9729;52.296;13.260;2023-10-19T03:09:52;37.63;;;22.03;;
19193;SDS011;9729;52.296;13.260;2023-10-19T03:12:19;40.90;;;20.03;;
19193;SDS011;9729;52.296;13.260;2023-10-19T03:14:45;35.83;;;20.80;;
19193;SDS011;9729;52.296;13.260;2023-10-19T03:17:13;37.90;;;21.80;;
19193;SDS011;9729;52.296;13.260;2023-10-19T03:19:38;39.73;;;22.20;;
19193;SDS011;9729;52.296;13.260;2023-10-19T03:22:05;37.53;;;20.73;;
19193;SDS011;9729;52.296;13.260;2023-10-19T03:24:32;37.10;;;22.07;;
19193;SDS011;9729;52.296;13.260;2023-10-19T03:27:01;41.03;;;21.60;;
19193;SDS011;9729;52.296;13.260;2023-10-19T03:29:33;38.43;;;20.23;;
19193;SDS011;9729;52.296;13.260;2023-10-19T03:32:03;45.93;;;22.07;;
19193;SDS011;9729;52.296;13.260;2023-10-19T03:34:29;39.73;;;21.37;;
19193;SDS011;9729;52.296;13.260;2023-10-19T03:36:57;40.10;;;21.87;;
19193;SDS011;9729;52.296;13.260;2023-10-19T03:39:29;36.77;;;21.97;;
19193;SDS011;9729;52.296;13.260;2023-10-19T03:41:57;36.33;;;21.27;;
19193;SDS011;9729;52.296;13.260;2023-10-19T03:44:23;34.77;;;21.67;;
19193;SDS011;9729;52.296;13.260;2023-10-19T03:46:50;40.23;;;22.00;;
19193;SDS011;9729;52.296;13.260;2023-10-19T03:49:21;39.03;;;21.73;;
19193;SDS011;9729;52.296;13.260;2023-10-19T03:51:48;36.20;;;22.10;;
19193;SDS011;9729;52.296;13.260;2023-10-19T03:54:25;35.93;;;21.53;;
19193;SDS011;9729;52.296;13.260;2023-10-19T03:56:52;38.93;;;23.00;;
19193;SDS011;9729;52.296;13.260;2023-10-19T03:59:21;41.53;;;21.57;;
19193;SDS011;9729;52.296;13.260;2023-10-19T04:01:48;37.73;;;22.17;;
19193;SDS011;9729;52.296;13.260;2023-10-19T04:04:15;43.87;;;22.07;;
19193;SDS011;9729;52.296;13.260;2023-10-19T04:06:41;36.60;;;21.53;;
19193;SDS011;9729;52.296;13.260;2023-10-19T04:09:12;38.70;;;23.17;;
19193;SDS011;9729;52.296;13.260;2023-10-19T04:11:41;40.67;;;21.83;;
19193;SDS011;9729;52.296;13.260;2023-10-19T04:14:13;38.73;;;22.37;;
19193;SDS011;9729;52.296;13.260;2023-10-19T04:16:42;38.40;;;23.23;;
19193;SDS011;9729;52.296;13.260;2023-10-19T04:19:09;43.57;;;24.13;;
19193;SDS011;9729;52.296;13.260;2023-10-19T04:21:36;42.93;;;24.00;;
19193;SDS011;9729;52.296;13.260;2023-10-19T04:24:04;40.80;;;22.80;;
19193;SDS011;9729;52.296;13.260;2023-10-19T04:26:32;46.47;;;23.97;;
19193;SDS011;9729;52.296;13.260;2023-10-19T04:29:02;46.43;;;24.10;;
19193;SDS011;9729;52.296;13.260;2023-10-19T04:31:35;43.03;;;22.73;;
19193;SDS011;9729;52.296;13.260;2023-10-19T04:34:09;38.87;;;22.00;;
19193;SDS011;9729;52.296;13.260;2023-10-19T04:36:35;41.37;;;23.13;;
19193;SDS011;9729;52.296;13.260;2023-10-19T04:39:04;34.90;;;22.93;;
19193;SDS011;9729;52.296;13.260;2023-10-19T04:41:36;44.27;;;23.23;;
19193;SDS011;9729;52.296;13.260;2023-10-19T04:44:04;44.13;;;22.67;;
19193;SDS011;9729;52.296;13.260;2023-10-19T04:46:33;44.80;;;23.47;;
19193;SDS011;9729;52.296;13.260;2023-10-19T04:48:59;46.83;;;24.20;;
19193;SDS011;9729;52.296;13.260;2023-10-19T04:51:27;41.97;;;23.13;;
19193;SDS011;9729;52.296;13.260;2023-10-19T04:53:53;38.60;;;23.57;;
19193;SDS011;9729;52.296;13.260;2023-10-19T04:56:20;47.33;;;26.37;;
19193;SDS011;9729;52.296;13.260;2023-10-19T04:58:47;42.03;;;23.07;;
19193;SDS011;9729;52.296;13.260;2023-10-19T05:01:13;41.00;;;24.03;;
19193;SDS011;9729;52.296;13.260;2023-10-19T05:03:39;41.40;;;24.23;;
19193;SDS011;9729;52.296;13.260;2023-10-19T05:06:06;41.80;;;24.90;;
19193;SDS011;9729;52.296;13.260;2023-10-19T05:08:37;40.93;;;23.73;;
19193;SDS011;9729;52.296;13.260;2023-10-19T05:11:03;44.47;;;24.97;;
19193;SDS011;9729;52.296;13.260;2023-10-19T05:13:30;52.10;;;25.43;;
19193;SDS011;9729;52.296;13.260;2023-10-19T05:15:57;43.43;;;25.17;;
19193;SDS011;9729;52.296;13.260;2023-10-19T05:18:24;41.27;;;25.50;;
19193;SDS011;9729;52.296;13.260;2023-10-19T05:20:51;49.43;;;27.17;;
19193;SDS011;9729;52.296;13.260;2023-10-19T05:23:21;48.83;;;26.13;;
19193;SDS011;9729;52.296;13.260;2023-10-19T05:25:50;48.03;;;26.57;;
19193;SDS011;9729;52.296;13.260;2023-10-19T05:28:17;55.20;;;27.50;;
19193;SDS011;9729;52.296;13.260;2023-10-19T05:30:43;46.00;;;26.40;;
19193;SDS011;9729;52.296;13.260;2023-10-19T05:33:10;46.87;;;27.97;;
19193;SDS011;9729;52.296;13.260;2023-10-19T05:35:37;46.47;;;27.80;;
19193;SDS011;9729;52.296;13.260;2023-10-19T05:38:05;48.43;;;27.60;;
19193;SDS011;9729;52.296;13.260;2023-10-19T05:40:32;46.67;;;28.70;;
19193;SDS011;9729;52.296;13.260;2023-10-19T05:43:00;47.53;;;28.90;;
19193;SDS011;9729;52.296;13.260;2023-10-19T05:45:26;48.07;;;27.63;;
19193;SDS011;9729;52.296;13.260;2023-10-19T05:47:53;50.03;;;29.33;;
19193;SDS011;9729;52.296;13.260;2023-10-19T05:50:20;55.37;;;29.73;;
19193;SDS011;9729;52.296;13.260;2023-10-19T05:52:47;48.13;;;26.93;;
19193;SDS011;9729;52.296;13.260;2023-10-19T05:55:13;49.27;;;29.17;;
19193;SDS011;9729;52.296;13.260;2023-10-19T05:57:40;53.07;;;27.47;;
19193;SDS011;9729;52.296;13.260;2023-10-19T06:00:09;55.97;;;28.70;;
19193;SDS011;9729;52.296;13.260;2023-10-19T06:02:41;50.70;;;28.50;;
19193;SDS011;9729;52.296;13.260;2023-10-19T06:05:09;51.50;;;28.47;;
19193;SDS011;9729;52.296;13.260;2023-10-19T06:07:36;50.63;;;28.23;;
19193;SDS011;9729;52.296;13.260;2023-10-19T06:10:02;49.60;;;27.47;;
19193;SDS011;9729;52.296;13.260;2023-10-19T06:12:30;47.33;;;28.73;;
19193;SDS011;9729;52.296;13.260;2023-10-19T06:14:57;47.80;;;27.73;;
19193;SDS011;9729;52.296;13.260;2023-10-19T06:17:25;48.23;;;28.00;;
19193;SDS011;9729;52.296;13.260;2023-10-19T06:19:51;52.67;;;28.37;;
19193;SDS011;9729;52.296;13.260;2023-10-19T06:22:18;45.80;;;27.47;;
19193;SDS011;9729;52.296;13.260;2023-10-19T06:24:44;53.67;;;27.47;;
19193;SDS011;9729;52.296;13.260;2023-10-19T06:27:10;48.00;;;29.00;;
19193;SDS011;9729;52.296;13.260;2023-10-19T06:29:37;52.23;;;29.40;;
19193;SDS011;9729;52.296;13.260;2023-10-19T06:32:04;49.40;;;27.70;;
19193;SDS011;9729;52.296;13.260;2023-10-19T06:34:31;57.47;;;28.50;;
19193;SDS011;9729;52.296;13.260;2023-10-19T06:36:58;52.90;;;29.60;;
19193;SDS011;9729;52.296;13.260;2023-10-19T06:39:25;46.97;;;29.63;;
19193;SDS011;9729;52.296;13.260;2023-10-19T06:41:52;53.40;;;27.83;;
19193;SDS011;9729;52.296;13.260;2023-10-19T06:44:18;56.23;;;30.50;;
19193;SDS011;9729;52.296;13.260;2023-10-19T06:46:47;52.63;;;30.67;;
19193;SDS011;9729;52.296;13.260;2023-10-19T06:49:13;49.60;;;29.67;;
19193;SDS011;9729;52.296;13.260;2023-10-19T06:51:42;52.27;;;30.13;;
19193;SDS011;9729;52.296;13.260;2023-10-19T06:54:08;50.60;;;29.47;;
19193;SDS011;9729;52.296;13.260;2023-10-19T06:56:34;52.73;;;29.13;;
19193;SDS011;9729;52.296;13.260;2023-10-19T06:59:02;54.67;;;29.17;;
19193;SDS011;9729;52.296;13.260;2023-10-19T07:01:30;45.87;;;28.73;;
19193;SDS011;9729;52.296;13.260;2023-10-19T07:03:57;53.53;;;31.33;;
19193;SDS011;9729;52.296;13.260;2023-10-19T07:06:23;51.33;;;31.03;;
19193;SDS011;9729;52.296;13.260;2023-10-19T07:08:52;49.27;;;30.60;;
19193;SDS011;9729;52.296;13.260;2023-10-19T07:11:18;56.33;;;30.20;;
19193;SDS011;9729;52.296;13.260;2023-10-19T07:13:44;49.70;;;29.43;;
19193;SDS011;9729;52.296;13.260;2023-10-19T07:16:11;48.37;;;28.90;;
19193;SDS011;9729;52.296;13.260;2023-10-19T07:18:37;49.30;;;29.10;;
19193;SDS011;9729;52.296;13.260;2023-10-19T07:21:04;51.13;;;29.93;;
19193;SDS011;9729;52.296;13.260;2023-10-19T07:23:34;50.13;;;29.80;;
19193;SDS011;9729;52.296;13.260;2023-10-19T07:26:04;48.13;;;29.37;;
19193;SDS011;9729;52.296;13.260;2023-10-19T07:28:31;50.57;;;29.03;;
19193;SDS011;9729;52.296;13.260;2023-10-19T07:30:58;50.77;;;30.63;;
19193;SDS011;9729;52.296;13.260;2023-10-19T07:33:25;52.20;;;28.37;;
19193;SDS011;9729;52.296;13.260;2023-10-19T07:35:51;58.40;;;31.07;;
19193;SDS011;9729;52.296;13.260;2023-10-19T07:38:21;50.60;;;29.73;;
19193;SDS011;9729;52.296;13.260;2023-10-19T07:40:47;55.70;;;30.07;;
19193;SDS011;9729;52.296;13.260;2023-10-19T07:43:15;47.90;;;28.60;;
19193;SDS011;9729;52.296;13.260;2023-10-19T07:45:41;54.27;;;30.67;;
19193;SDS011;9729;52.296;13.260;2023-10-19T07:48:08;53.23;;;29.13;;
19193;SDS011;9729;52.296;13.260;2023-10-19T07:50:36;54.77;;;30.70;;
19193;SDS011;9729;52.296;13.260;2023-10-19T07:53:05;50.77;;;29.67;;
19193;SDS011;9729;52.296;13.260;2023-10-19T07:55:32;47.53;;;30.27;;
19193;SDS011;9729;52.296;13.260;2023-10-19T07:57:58;55.40;;;29.20;;
19193;SDS011;9729;52.296;13.260;2023-10-19T08:00:27;49.17;;;29.47;;
19193;SDS011;9729;52.296;13.260;2023-10-19T08:02:55;44.17;;;27.40;;
19193;SDS011;9729;52.296;13.260;2023-10-19T08:05:21;50.73;;;30.50;;
19193;SDS011;9729;52.296;13.260;2023-10-19T08:07:48;53.40;;;30.03;;
19193;SDS011;9729;52.296;13.260;2023-10-19T08:10:15;52.07;;;29.93;;
19193;SDS011;9729;52.296;13.260;2023-10-19T08:12:43;51.67;;;29.20;;
19193;SDS011;9729;52.296;13.260;2023-10-19T08:15:12;48.77;;;30.20;;
19193;SDS011;9729;52.296;13.260;2023-10-19T08:17:42;59.13;;;30.17;;
19193;SDS011;9729;52.296;13.260;2023-10-19T08:20:10;45.00;;;28.73;;
19193;SDS011;9729;52.296;13.260;2023-10-19T08:22:41;49.73;;;29.93;;
19193;SDS011;9729;52.296;13.260;2023-10-19T08:25:08;48.93;;;29.10;;
19193;SDS011;9729;52.296;13.260;2023-10-19T08:27:37;52.50;;;30.53;;
19193;SDS011;9729;52.296;13.260;2023-10-19T08:30:05;50.77;;;31.20;;
19193;SDS011;9729;52.296;13.260;2023-10-19T08:32:33;54.23;;;30.77;;
19193;SDS011;9729;52.296;13.260;2023-10-19T08:35:02;47.07;;;29.47;;
19193;SDS011;9729;52.296;13.260;2023-10-19T08:37:29;52.30;;;30.00;;
19193;SDS011;9729;52.296;13.260;2023-10-19T08:39:56;51.23;;;30.67;;
19193;SDS011;9729;52.296;13.260;2023-10-19T08:42:23;52.03;;;29.47;;
19193;SDS011;9729;52.296;13.260;2023-10-19T08:44:49;58.03;;;31.27;;
19193;SDS011;9729;52.296;13.260;2023-10-19T08:47:16;49.90;;;30.77;;
19193;SDS011;9729;52.296;13.260;2023-10-19T08:49:42;49.73;;;30.87;;
19193;SDS011;9729;52.296;13.260;2023-10-19T08:52:10;51.10;;;30.53;;
19193;SDS011;9729;52.296;13.260;2023-10-19T08:54:38;53.40;;;32.70;;
19193;SDS011;9729;52.296;13.260;2023-10-19T08:57:04;53.43;;;31.73;;
19193;SDS011;9729;52.296;13.260;2023-10-19T08:59:32;51.83;;;30.80;;
19193;SDS011;9729;52.296;13.260;2023-10-19T09:02:01;62.00;;;33.00;;
19193;SDS011;9729;52.296;13.260;2023-10-19T09:04:28;53.70;;;30.67;;
19193;SDS011;9729;52.296;13.260;2023-10-19T09:06:55;54.13;;;31.70;;
19193;SDS011;9729;52.296;13.260;2023-10-19T09:09:22;53.03;;;31.30;;
19193;SDS011;9729;52.296;13.260;2023-10-19T09:11:50;49.10;;;31.63;;
19193;SDS011;9729;52.296;13.260;2023-10-19T09:14:18;50.93;;;30.60;;
19193;SDS011;9729;52.296;13.260;2023-10-19T09:16:57;50.53;;;30.17;;
19193;SDS011;9729;52.296;13.260;2023-10-19T09:19:35;52.27;;;32.97;;
19193;SDS011;9729;52.296;13.260;2023-10-19T09:22:05;57.33;;;30.60;;
19193;SDS011;9729;52.296;13.260;2023-10-19T09:24:42;51.70;;;31.97;;
19193;SDS011;9729;52.296;13.260;2023-10-19T09:27:10;55.53;;;31.70;;
19193;SDS011;9729;52.296;13.260;2023-10-19T09:29:36;52.37;;;32.90;;
19193;SDS011;9729;52.296;13.260;2023-10-19T09:32:02;48.83;;;31.90;;
19193;SDS011;9729;52.296;13.260;2023-10-19T09:34:30;57.13;;;30.73;;
19193;SDS011;9729;52.296;13.260;2023-10-19T09:36:58;48.17;;;31.37;;
19193;SDS011;9729;52.296;13.260;2023-10-19T09:39:25;54.87;;;31.37;;
19193;SDS011;9729;52.296;13.260;2023-10-19T09:42:00;53.63;;;32.57;;
19193;SDS011;9729;52.296;13.260;2023-10-19T09:44:30;58.03;;;32.33;;
19193;SDS011;9729;52.296;13.260;2023-10-19T09:46:59;46.80;;;31.00;;
19193;SDS011;9729;52.296;13.260;2023-10-19T09:49:29;47.27;;;31.13;;
19193;SDS011;9729;52.296;13.260;2023-10-19T09:51:55;54.43;;;32.13;;
19193;SDS011;9729;52.296;13.260;2023-10-19T09:54:22;48.43;;;31.53;;
19193;SDS011;9729;52.296;13.260;2023-10-19T09:56:55;51.90;;;31.60;;
19193;SDS011;9729;52.296;13.260;2023-10-19T09:59:31;49.57;;;32.10;;
19193;SDS011;9729;52.296;13.260;2023-10-19T10:02:07;48.40;;;29.80;;
19193;SDS011;9729;52.296;13.260;2023-10-19T10:04:34;51.83;;;30.63;;
19193;SDS011;9729;52.296;13.260;2023-10-19T10:07:01;51.00;;;30.13;;
19193;SDS011;9729;52.296;13.260;2023-10-19T10:09:30;50.43;;;32.57;;
19193;SDS011;9729;52.296;13.260;2023-10-19T10:12:01;48.23;;;31.30;;
19193;SDS011;9729;52.296;13.260;2023-10-19T10:14:44;54.23;;;32.20;;
19193;SDS011;9729;52.296;13.260;2023-10-19T10:17:19;54.20;;;31.77;;
19193;SDS011;9729;52.296;13.260;2023-10-19T10:19:45;51.03;;;28.77;;
19193;SDS011;9729;52.296;13.260;2023-10-19T10:22:13;53.97;;;31.80;;
19193;SDS011;9729;52.296;13.260;2023-10-19T10:24:41;49.87;;;29.87;;
19193;SDS011;9729;52.296;13.260;2023-10-19T10:27:09;48.17;;;31.00;;
19193;SDS011;9729;52.296;13.260;2023-10-19T10:29:41;49.87;;;30.20;;
19193;SDS011;9729;52.296;13.260;2023-10-19T10:35:11;48.43;;;31.23;;
19193;SDS011;9729;52.296;13.260;2023-10-19T10:38:16;51.63;;;30.70;;
19193;SDS011;9729;52.296;13.260;2023-10-19T10:40:42;47.67;;;29.97;;
19193;SDS011;9729;52.296;13.260;2023-10-19T10:43:10;46.80;;;30.07;;
19193;SDS011;9729;52.296;13.260;2023-10-19T10:45:37;48.97;;;29.53;;
19193;SDS011;9729;52.296;13.260;2023-10-19T10:48:03;47.80;;;30.87;;
19193;SDS011;9729;52.296;13.260;2023-10-19T10:50:31;48.13;;;31.03;;
19193;SDS011;9729;52.296;13.260;2023-10-19T10:52:57;51.57;;;32.43;;
19193;SDS011;9729;52.296;13.260;2023-10-19T10:55:24;51.83;;;31.27;;
19193;SDS011;9729;52.296;13.260;2023-10-19T10:57:52;49.93;;;31.20;;
19193;SDS011;9729;52.296;13.260;2023-10-19T11:00:20;49.37;;;31.33;;
19193;SDS011;9729;52.296;13.260;2023-10-19T11:02:59;48.43;;;28.80;;
19193;SDS011;9729;52.296;13.260;2023-10-19T11:05:25;47.50;;;30.57;;
19193;SDS011;9729;52.296;13.260;2023-10-19T11:08:05;44.90;;;27.63;;
19193;SDS011;9729;52.296;13.260;2023-10-19T11:10:34;42.87;;;28.70;;
19193;SDS011;9729;52.296;13.260;2023-10-19T11:13:01;48.33;;;29.70;;
19193;SDS011;9729;52.296;13.260;2023-10-19T11:15:29;46.17;;;31.30;;
19193;SDS011;9729;52.296;13.260;2023-10-19T11:17:55;40.93;;;27.37;;
19193;SDS011;9729;52.296;13.260;2023-10-19T11:20:22;46.47;;;29.43;;
19193;SDS011;9729;52.296;13.260;2023-10-19T11:22:50;45.10;;;29.20;;
19193;SDS011;9729;52.296;13.260;2023-10-19T11:25:17;46.83;;;29.63;;
19193;SDS011;9729;52.296;13.260;2023-10-19T11:27:44;45.17;;;27.53;;
19193;SDS011;9729;52.296;13.260;2023-10-19T11:30:12;42.87;;;27.90;;
19193;SDS011;9729;52.296;13.260;2023-10-19T11:32:40;43.53;;;28.23;;
19193;SDS011;9729;52.296;13.260;2023-10-19T11:35:07;46.70;;;28.93;;
19193;SDS011;9729;52.296;13.260;2023-10-19T11:37:45;41.57;;;28.57;;
19193;SDS011;9729;52.296;13.260;2023-10-19T11:40:12;36.80;;;25.03;;
19193;SDS011;9729;52.296;13.260;2023-10-19T11:42:38;44.77;;;29.03;;
19193;SDS011;9729;52.296;13.260;2023-10-19T11:45:05;45.77;;;28.47;;
19193;SDS011;9729;52.296;13.260;2023-10-19T11:47:32;46.33;;;30.60;;
19193;SDS011;9729;52.296;13.260;2023-10-19T11:50:01;44.67;;;30.70;;
19193;SDS011;9729;52.296;13.260;2023-10-19T11:52:27;46.77;;;30.50;;
19193;SDS011;9729;52.296;13.260;2023-10-19T11:54:55;48.37;;;30.87;;
19193;SDS011;9729;52.296;13.260;2023-10-19T11:57:21;48.10;;;32.27;;
19193;SDS011;9729;52.296;13.260;2023-10-19T11:59:48;42.47;;;29.77;;
19193;SDS011;9729;52.296;13.260;2023-10-19T12:02:17;46.50;;;30.17;;
19193;SDS011;9729;52.296;13.260;2023-10-19T12:04:43;50.27;;;29.63;;
19193;SDS011;9729;52.296;13.260;2023-10-19T12:07:11;48.33;;;29.80;;
19193;SDS011;9729;52.296;13.260;2023-10-19T12:09:38;47.17;;;31.10;;
19193;SDS011;9729;52.296;13.260;2023-10-19T12:12:06;52.57;;;32.20;;
19193;SDS011;9729;52.296;13.260;2023-10-19T12:14:34;46.57;;;30.30;;
19193;SDS011;9729;52.296;13.260;2023-10-19T12:17:00;47.83;;;31.73;;
19193;SDS011;9729;52.296;13.260;2023-10-19T12:19:27;47.93;;;32.13;;
19193;SDS011;9729;52.296;13.260;2023-10-19T12:21:54;49.97;;;30.73;;
19193;SDS011;9729;52.296;13.260;2023-10-19T12:24:22;48.77;;;30.00;;
19193;SDS011;9729;52.296;13.260;2023-10-19T12:26:49;48.90;;;30.53;;
19193;SDS011;9729;52.296;13.260;2023-10-19T12:29:15;47.00;;;30.20;;
19193;SDS011;9729;52.296;13.260;2023-10-19T12:31:45;52.60;;;31.03;;
19193;SDS011;9729;52.296;13.260;2023-10-19T12:34:12;48.07;;;30.03;;
19193;SDS011;9729;52.296;13.260;2023-10-19T12:36:38;47.70;;;31.77;;
19193;SDS011;9729;52.296;13.260;2023-10-19T12:39:06;45.23;;;30.97;;
19193;SDS011;9729;52.296;13.260;2023-10-19T12:41:34;52.37;;;31.00;;
19193;SDS011;9729;52.296;13.260;2023-10-19T12:44:01;71.60;;;42.37;;
19193;SDS011;9729;52.296;13.260;2023-10-19T12:46:33;63.93;;;36.77;;
19193;SDS011;9729;52.296;13.260;2023-10-19T12:49:01;55.17;;;34.23;;
19193;SDS011;9729;52.296;13.260;2023-10-19T12:51:28;59.03;;;34.27;;
19193;SDS011;9729;52.296;13.260;2023-10-19T12:53:55;56.20;;;34.50;;
19193;SDS011;9729;52.296;13.260;2023-10-19T12:56:21;57.00;;;35.00;;
19193;SDS011;9729;52.296;13.260;2023-10-19T12:58:50;49.90;;;33.70;;
19193;SDS011;9729;52.296;13.260;2023-10-19T13:01:17;54.13;;;32.83;;
19193;SDS011;9729;52.296;13.260;2023-10-19T13:03:44;50.23;;;32.50;;
19193;SDS011;9729;52.296;13.260;2023-10-19T13:06:11;51.07;;;33.40;;
19193;SDS011;9729;52.296;13.260;2023-10-19T13:08:38;54.50;;;32.77;;
19193;SDS011;9729;52.296;13.260;2023-10-19T13:11:06;60.87;;;37.20;;
19193;SDS011;9729;52.296;13.260;2023-10-19T13:13:32;56.93;;;35.63;;
19193;SDS011;9729;52.296;13.260;2023-10-19T13:16:02;51.87;;;34.83;;
19193;SDS011;9729;52.296;13.260;2023-10-19T13:18:30;52.97;;;34.27;;
19193;SDS011;9729;52.296;13.260;2023-10-19T13:20:59;52.60;;;35.60;;
19193;SDS011;9729;52.296;13.260;2023-10-19T13:23:29;59.23;;;36.53;;
19193;SDS011;9729;52.296;13.260;2023-10-19T13:25:58;55.50;;;33.93;;
19193;SDS011;9729;52.296;13.260;2023-10-19T13:28:33;52.17;;;32.33;;
19193;SDS011;9729;52.296;13.260;2023-10-19T13:31:00;57.37;;;34.13;;
19193;SDS011;9729;52.296;13.260;2023-10-19T13:33:30;53.33;;;34.20;;
19193;SDS011;9729;52.296;13.260;2023-10-19T13:35:57;50.53;;;31.63;;
19193;SDS011;9729;52.296;13.260;2023-10-19T13:38:23;55.63;;;34.10;;
19193;SDS011;9729;52.296;13.260;2023-10-19T13:40:49;58.37;;;35.63;;
19193;SDS011;9729;52.296;13.260;2023-10-19T13:43:16;56.03;;;35.63;;
19193;SDS011;9729;52.296;13.260;2023-10-19T13:45:44;54.27;;;36.10;;
19193;SDS011;9729;52.296;13.260;2023-10-19T13:48:12;58.43;;;37.30;;
19193;SDS011;9729;52.296;13.260;2023-10-19T13:50:43;57.00;;;35.43;;
19193;SDS011;9729;52.296;13.260;2023-10-19T13:53:13;57.93;;;35.87;;
19193;SDS011;9729;52.296;13.260;2023-10-19T13:55:40;57.73;;;36.30;;
19193;SDS011;9729;52.296;13.260;2023-10-19T13:58:07;59.23;;;36.17;;
19193;SDS011;9729;52.296;13.260;2023-10-19T14:00:33;53.33;;;36.37;;
19193;SDS011;9729;52.296;13.260;2023-10-19T14:03:05;64.07;;;37.67;;
19193;SDS011;9729;52.296;13.260;2023-10-19T14:05:35;53.10;;;34.73;;
19193;SDS011;9729;52.296;13.260;2023-10-19T14:08:04;53.43;;;34.67;;
19193;SDS011;9729;52.296;13.260;2023-10-19T14:10:30;55.47;;;36.10;;
19193;SDS011;9729;52.296;13.260;2023-10-19T14:12:57;59.07;;;34.03;;
19193;SDS011;9729;52.296;13.260;2023-10-19T14:15:23;52.80;;;33.73;;
19193;SDS011;9729;52.296;13.260;2023-10-19T14:17:50;58.97;;;36.17;;
19193;SDS011;9729;52.296;13.260;2023-10-19T14:20:17;56.03;;;34.10;;
19193;SDS011;9729;52.296;13.260;2023-10-19T14:22:44;51.20;;;35.10;;
19193;SDS011;9729;52.296;13.260;2023-10-19T14:25:12;54.83;;;35.57;;
19193;SDS011;9729;52.296;13.260;2023-10-19T14:27:40;51.40;;;35.00;;
19193;SDS011;9729;52.296;13.260;2023-10-19T14:30:07;49.27;;;32.93;;